sensor_id;sensor_type;location;lat;lon;timestamp;pressure;altitude;pressure_sealevel;temperature;humidity
70546;BME280;58098;51.680;5.134;2024-03-02T00:01:50;99876.50;;;7.60;100.00
70546;BME280;58098;51.680;5.134;2024-03-02T00:04:15;99878.72;;;7.44;100.00
70546;BME280;58098;51.680;5.134;2024-03-02T00:06:42;99864.53;;;7.27;100.00
70546;BME280;58098;51.680;5.134;2024-03-02T00:09:09;99849.34;;;7.11;100.00
70546;BME280;58098;51.680;5.134;2024-03-02T00:11:37;99837.84;;;7.04;100.00
70546;BME280;58098;51.680;5.134;2024-03-02T00:14:02;99847.50;;;7.02;100.00
70546;BME280;58098;51.680;5.134;2024-03-02T00:16:31;99848.81;;;6.97;100.00
70546;BME280;58098;51.680;5.134;2024-03-02T00:19:01;99848.81;;;6.97;100.00
70546;BME280;58098;51.680;5.134;2024-03-02T00:21:29;99847.44;;;6.93;100.00
70546;BME280;58098;51.680;5.134;2024-03-02T00:23:56;99847.09;;;6.86;100.00
70546;BME280;58098;51.680;5.134;2024-03-02T00:26:21;99839.78;;;6.80;100.00
70546;BME280;58098;51.680;5.134;2024-03-02T00:28:47;99841.94;;;6.75;100.00
70546;BME280;58098;51.680;5.134;2024-03-02T00:31:15;99829.69;;;6.66;100.00
70546;BME280;58098;51.680;5.134;2024-03-02T00:33:46;99837.69;;;6.74;100.00
70546;BME280;58098;51.680;5.134;2024-03-02T00:36:13;99836.03;;;6.73;100.00
70546;BME280;58098;51.680;5.134;2024-03-02T00:38:49;99842.53;;;6.68;100.00
70546;BME280;58098;51.680;5.134;2024-03-02T00:44:15;99845.03;;;6.58;100.00
70546;BME280;58098;51.680;5.134;2024-03-02T00:46:42;99835.03;;;6.53;100.00
70546;BME280;58098;51.680;5.134;2024-03-02T00:49:21;99819.47;;;6.53;100.00
70546;BME280;58098;51.680;5.134;2024-03-02T00:51:48;99827.47;;;6.50;100.00
70546;BME280;58098;51.680;5.134;2024-03-02T00:54:14;99833.63;;;6.49;100.00
70546;BME280;58098;51.680;5.134;2024-03-02T00:56:41;99834.78;;;6.56;100.00
70546;BME280;58098;51.680;5.134;2024-03-02T00:59:07;99827.63;;;6.49;100.00
70546;BME280;58098;51.680;5.134;2024-03-02T01:01:33;99851.41;;;6.54;100.00
70546;BME280;58098;51.680;5.134;2024-03-02T01:03:59;99826.78;;;6.48;100.00
70546;BME280;58098;51.680;5.134;2024-03-02T01:06:24;99826.22;;;6.45;100.00
70546;BME280;58098;51.680;5.134;2024-03-02T01:08:49;99834.31;;;6.51;100.00
70546;BME280;58098;51.680;5.134;2024-03-02T01:11:16;99823.34;;;6.48;100.00
70546;BME280;58098;51.680;5.134;2024-03-02T01:13:43;99828.44;;;6.49;100.00
70546;BME280;58098;51.680;5.134;2024-03-02T01:16:08;99843.16;;;6.49;100.00
70546;BME280;58098;51.680;5.134;2024-03-02T01:18:33;99848.34;;;6.49;100.00
70546;BME280;58098;51.680;5.134;2024-03-02T01:20:59;99841.50;;;6.48;100.00
70546;BME280;58098;51.680;5.134;2024-03-02T01:23:25;99855.06;;;6.51;100.00
70546;BME280;58098;51.680;5.134;2024-03-02T01:25:51;99874.13;;;6.50;100.00
70546;BME280;58098;51.680;5.134;2024-03-02T01:28:17;99858.94;;;6.46;100.00
70546;BME280;58098;51.680;5.134;2024-03-02T01:30:43;99853.97;;;6.43;100.00
70546;BME280;58098;51.680;5.134;2024-03-02T01:33:08;99872.50;;;6.49;100.00
70546;BME280;58098;51.680;5.134;2024-03-02T01:35:33;99864.25;;;6.44;100.00
70546;BME280;58098;51.680;5.134;2024-03-02T01:38:00;99868.00;;;6.51;100.00
70546;BME280;58098;51.680;5.134;2024-03-02T01:40:26;99863.75;;;6.50;100.00
70546;BME280;58098;51.680;5.134;2024-03-02T01:42:52;99868.25;;;6.48;100.00
70546;BME280;58098;51.680;5.134;2024-03-02T01:45:18;99860.22;;;6.40;100.00
70546;BME280;58098;51.680;5.134;2024-03-02T01:47:43;99881.56;;;6.44;100.00
70546;BME280;58098;51.680;5.134;2024-03-02T01:50:11;99871.66;;;6.38;100.00
70546;BME280;58098;51.680;5.134;2024-03-02T01:52:36;99881.78;;;6.41;100.00
70546;BME280;58098;51.680;5.134;2024-03-02T01:55:02;99881.78;;;6.41;100.00
70546;BME280;58098;51.680;5.134;2024-03-02T01:57:29;99872.38;;;6.40;100.00
70546;BME280;58098;51.680;5.134;2024-03-02T01:59:54;99883.69;;;6.39;100.00
70546;BME280;58098;51.680;5.134;2024-03-02T02:02:19;99871.19;;;6.33;100.00
70546;BME280;58098;51.680;5.134;2024-03-02T02:04:45;99868.72;;;6.31;100.00
70546;BME280;58098;51.680;5.134;2024-03-02T02:07:10;99854.13;;;6.30;100.00
70546;BME280;58098;51.680;5.134;2024-03-02T02:09:36;99865.56;;;6.28;100.00
70546;BME280;58098;51.680;5.134;2024-03-02T02:12:02;99869.91;;;6.27;100.00
70546;BME280;58098;51.680;5.134;2024-03-02T02:14:27;99856.25;;;6.25;100.00
70546;BME280;58098;51.680;5.134;2024-03-02T02:16:53;99874.97;;;6.29;100.00
70546;BME280;58098;51.680;5.134;2024-03-02T02:19:19;99853.75;;;6.24;100.00
70546;BME280;58098;51.680;5.134;2024-03-02T02:21:44;99859.53;;;6.27;100.00
70546;BME280;58098;51.680;5.134;2024-03-02T02:24:10;99868.03;;;6.29;100.00
70546;BME280;58098;51.680;5.134;2024-03-02T02:26:35;99864.81;;;6.26;100.00
70546;BME280;58098;51.680;5.134;2024-03-02T02:29:00;99860.84;;;6.22;100.00
70546;BME280;58098;51.680;5.134;2024-03-02T02:31:26;99863.66;;;6.19;100.00
70546;BME280;58098;51.680;5.134;2024-03-02T02:33:51;99857.28;;;6.12;100.00
70546;BME280;58098;51.680;5.134;2024-03-02T02:36:16;99865.53;;;6.17;100.00
70546;BME280;58098;51.680;5.134;2024-03-02T02:38:44;99861.78;;;6.10;100.00
70546;BME280;58098;51.680;5.134;2024-03-02T02:41:11;99859.66;;;6.15;100.00
70546;BME280;58098;51.680;5.134;2024-03-02T02:43:38;99862.25;;;6.15;100.00
70546;BME280;58098;51.680;5.134;2024-03-02T02:46:05;99862.38;;;6.13;100.00
70546;BME280;58098;51.680;5.134;2024-03-02T02:48:30;99864.13;;;6.13;100.00
70546;BME280;58098;51.680;5.134;2024-03-02T02:50:55;99842.13;;;6.07;100.00
70546;BME280;58098;51.680;5.134;2024-03-02T02:53:21;99840.81;;;6.13;100.00
70546;BME280;58098;51.680;5.134;2024-03-02T02:55:46;99841.28;;;6.07;100.00
70546;BME280;58098;51.680;5.134;2024-03-02T02:58:12;99843.28;;;6.03;100.00
70546;BME280;58098;51.680;5.134;2024-03-02T03:00:38;99854.72;;;6.01;100.00
70546;BME280;58098;51.680;5.134;2024-03-02T03:03:03;99853.19;;;5.98;100.00
70546;BME280;58098;51.680;5.134;2024-03-02T03:05:29;99866.22;;;5.96;100.00
70546;BME280;58098;51.680;5.134;2024-03-02T03:07:54;99858.94;;;5.90;100.00
70546;BME280;58098;51.680;5.134;2024-03-02T03:10:20;99849.47;;;5.78;100.00
70546;BME280;58098;51.680;5.134;2024-03-02T03:12:47;99857.94;;;5.80;100.00
70546;BME280;58098;51.680;5.134;2024-03-02T03:15:13;99867.59;;;5.78;100.00
70546;BME280;58098;51.680;5.134;2024-03-02T03:17:39;99852.28;;;5.75;100.00
70546;BME280;58098;51.680;5.134;2024-03-02T03:20:05;99875.66;;;5.86;100.00
70546;BME280;58098;51.680;5.134;2024-03-02T03:22:35;99859.69;;;5.80;100.00
70546;BME280;58098;51.680;5.134;2024-03-02T03:25:01;99858.63;;;5.82;100.00
70546;BME280;58098;51.680;5.134;2024-03-02T03:27:26;99877.06;;;5.90;100.00
70546;BME280;58098;51.680;5.134;2024-03-02T03:29:51;99882.22;;;5.90;100.00
70546;BME280;58098;51.680;5.134;2024-03-02T03:32:17;99867.16;;;5.84;100.00
70546;BME280;58098;51.680;5.134;2024-03-02T03:34:42;99876.22;;;5.90;100.00
70546;BME280;58098;51.680;5.134;2024-03-02T03:37:08;99871.72;;;5.81;100.00
70546;BME280;58098;51.680;5.134;2024-03-02T03:39:34;99897.06;;;5.88;100.00
70546;BME280;58098;51.680;5.134;2024-03-02T03:42:00;99886.19;;;5.83;100.00
70546;BME280;58098;51.680;5.134;2024-03-02T03:44:26;99899.13;;;5.83;100.00
70546;BME280;58098;51.680;5.134;2024-03-02T03:46:51;99892.41;;;5.81;100.00
70546;BME280;58098;51.680;5.134;2024-03-02T03:49:16;99885.34;;;5.72;100.00
70546;BME280;58098;51.680;5.134;2024-03-02T03:51:42;99898.88;;;5.75;100.00
70546;BME280;58098;51.680;5.134;2024-03-02T03:54:08;99894.63;;;5.74;100.00
70546;BME280;58098;51.680;5.134;2024-03-02T03:56:33;99900.53;;;5.76;100.00
70546;BME280;58098;51.680;5.134;2024-03-02T03:58:58;99893.47;;;5.78;100.00
70546;BME280;58098;51.680;5.134;2024-03-02T04:01:24;99902.78;;;5.81;100.00
70546;BME280;58098;51.680;5.134;2024-03-02T04:03:50;99899.22;;;5.82;100.00
70546;BME280;58098;51.680;5.134;2024-03-02T04:06:15;99898.44;;;5.81;100.00
70546;BME280;58098;51.680;5.134;2024-03-02T04:08:42;99893.03;;;5.84;100.00
70546;BME280;58098;51.680;5.134;2024-03-02T04:11:08;99896.53;;;5.83;100.00
70546;BME280;58098;51.680;5.134;2024-03-02T04:13:33;99883.13;;;5.78;100.00
70546;BME280;58098;51.680;5.134;2024-03-02T04:15:59;99886.28;;;5.82;100.00
70546;BME280;58098;51.680;5.134;2024-03-02T04:18:24;99882.63;;;5.73;100.00
70546;BME280;58098;51.680;5.134;2024-03-02T04:20:50;99897.97;;;5.87;100.00
70546;BME280;58098;51.680;5.134;2024-03-02T04:23:15;99901.53;;;5.86;100.00
70546;BME280;58098;51.680;5.134;2024-03-02T04:25:40;99898.09;;;5.86;100.00
70546;BME280;58098;51.680;5.134;2024-03-02T04:28:06;99890.75;;;5.80;100.00
70546;BME280;58098;51.680;5.134;2024-03-02T04:30:31;99894.88;;;5.82;100.00
70546;BME280;58098;51.680;5.134;2024-03-02T04:32:56;99907.81;;;5.82;100.00
70546;BME280;58098;51.680;5.134;2024-03-02T04:35:22;99898.53;;;5.80;100.00
70546;BME280;58098;51.680;5.134;2024-03-02T04:37:47;99899.56;;;5.77;100.00
70546;BME280;58098;51.680;5.134;2024-03-02T04:40:12;99904.72;;;5.66;100.00
70546;BME280;58098;51.680;5.134;2024-03-02T04:42:38;99915.41;;;5.62;100.00
70546;BME280;58098;51.680;5.134;2024-03-02T04:45:03;99906.56;;;5.53;100.00
70546;BME280;58098;51.680;5.134;2024-03-02T04:47:29;99908.56;;;5.50;100.00
70546;BME280;58098;51.680;5.134;2024-03-02T04:49:54;99921.75;;;5.58;100.00
70546;BME280;58098;51.680;5.134;2024-03-02T04:52:19;99912.91;;;5.49;100.00
70546;BME280;58098;51.680;5.134;2024-03-02T04:54:45;99924.44;;;5.56;100.00
70546;BME280;58098;51.680;5.134;2024-03-02T04:57:28;99921.59;;;5.48;100.00
70546;BME280;58098;51.680;5.134;2024-03-02T04:59:53;99923.75;;;5.54;100.00
70546;BME280;58098;51.680;5.134;2024-03-02T05:02:19;99926.53;;;5.51;100.00
70546;BME280;58098;51.680;5.134;2024-03-02T05:04:44;99925.72;;;5.51;100.00
70546;BME280;58098;51.680;5.134;2024-03-02T05:07:10;99935.13;;;5.52;100.00
70546;BME280;58098;51.680;5.134;2024-03-02T05:09:35;99938.66;;;5.51;100.00
70546;BME280;58098;51.680;5.134;2024-03-02T05:12:00;99934.19;;;5.53;100.00
70546;BME280;58098;51.680;5.134;2024-03-02T05:14:48;99942.91;;;5.52;100.00
70546;BME280;58098;51.680;5.134;2024-03-02T05:17:13;99935.22;;;5.50;100.00
70546;BME280;58098;51.680;5.134;2024-03-02T05:19:39;99934.53;;;5.48;100.00
70546;BME280;58098;51.680;5.134;2024-03-02T05:22:04;99929.19;;;5.39;100.00
70546;BME280;58098;51.680;5.134;2024-03-02T05:24:30;99928.34;;;5.38;100.00
70546;BME280;58098;51.680;5.134;2024-03-02T05:26:56;99933.03;;;5.33;100.00
70546;BME280;58098;51.680;5.134;2024-03-02T05:29:21;99928.75;;;5.21;100.00
70546;BME280;58098;51.680;5.134;2024-03-02T05:31:47;99940.53;;;5.25;100.00
70546;BME280;58098;51.680;5.134;2024-03-02T05:34:12;99945.91;;;5.22;100.00
70546;BME280;58098;51.680;5.134;2024-03-02T05:36:37;99942.00;;;5.16;100.00
70546;BME280;58098;51.680;5.134;2024-03-02T05:39:04;99947.78;;;5.20;100.00
70546;BME280;58098;51.680;5.134;2024-03-02T05:41:31;99952.97;;;5.20;100.00
70546;BME280;58098;51.680;5.134;2024-03-02T05:43:57;99954.84;;;5.18;100.00
70546;BME280;58098;51.680;5.134;2024-03-02T05:46:22;99957.75;;;5.13;100.00
70546;BME280;58098;51.680;5.134;2024-03-02T05:48:47;99965.59;;;5.12;100.00
70546;BME280;58098;51.680;5.134;2024-03-02T05:51:13;99963.56;;;5.04;100.00
70546;BME280;58098;51.680;5.134;2024-03-02T05:53:38;99963.78;;;5.01;100.00
70546;BME280;58098;51.680;5.134;2024-03-02T05:56:04;99962.72;;;5.04;100.00
70546;BME280;58098;51.680;5.134;2024-03-02T05:58:30;99965.22;;;5.05;100.00
70546;BME280;58098;51.680;5.134;2024-03-02T06:01:13;99958.16;;;5.07;100.00
70546;BME280;58098;51.680;5.134;2024-03-02T06:03:38;99952.78;;;5.10;100.00
70546;BME280;58098;51.680;5.134;2024-03-02T06:06:04;99976.94;;;5.22;100.00
70546;BME280;58098;51.680;5.134;2024-03-02T06:08:29;99974.25;;;5.23;100.00
70546;BME280;58098;51.680;5.134;2024-03-02T06:10:54;99955.16;;;5.13;100.00
70546;BME280;58098;51.680;5.134;2024-03-02T06:13:21;99963.09;;;5.23;100.00
70546;BME280;58098;51.680;5.134;2024-03-02T06:15:46;99976.91;;;5.34;100.00
70546;BME280;58098;51.680;5.134;2024-03-02T06:18:12;99977.50;;;5.38;100.00
70546;BME280;58098;51.680;5.134;2024-03-02T06:20:37;99985.16;;;5.40;100.00
70546;BME280;58098;51.680;5.134;2024-03-02T06:23:03;99968.31;;;5.34;100.00
70546;BME280;58098;51.680;5.134;2024-03-02T06:25:29;99983.28;;;5.42;100.00
70546;BME280;58098;51.680;5.134;2024-03-02T06:27:54;99974.91;;;5.38;100.00
70546;BME280;58098;51.680;5.134;2024-03-02T06:30:19;99970.19;;;5.32;100.00
70546;BME280;58098;51.680;5.134;2024-03-02T06:32:45;99970.28;;;5.30;100.00
70546;BME280;58098;51.680;5.134;2024-03-02T06:35:10;99989.22;;;5.31;100.00
70546;BME280;58098;51.680;5.134;2024-03-02T06:37:38;99979.03;;;5.17;100.00
70546;BME280;58098;51.680;5.134;2024-03-02T06:40:07;99989.88;;;5.22;100.00
70546;BME280;58098;51.680;5.134;2024-03-02T06:42:33;99987.00;;;5.14;100.00
70546;BME280;58098;51.680;5.134;2024-03-02T06:44:59;99976.16;;;5.09;100.00
70546;BME280;58098;51.680;5.134;2024-03-02T06:47:25;99993.13;;;5.13;100.00
70546;BME280;58098;51.680;5.134;2024-03-02T06:49:50;100006.56;;;5.18;100.00
70546;BME280;58098;51.680;5.134;2024-03-02T06:52:16;99998.09;;;5.16;100.00
70546;BME280;58098;51.680;5.134;2024-03-02T06:54:41;100002.50;;;5.14;100.00
70546;BME280;58098;51.680;5.134;2024-03-02T06:57:06;99984.41;;;5.14;100.00
70546;BME280;58098;51.680;5.134;2024-03-02T06:59:32;99991.84;;;5.18;100.00
70546;BME280;58098;51.680;5.134;2024-03-02T07:01:58;99999.19;;;5.24;100.00
70546;BME280;58098;51.680;5.134;2024-03-02T07:04:24;100005.69;;;5.30;100.00
70546;BME280;58098;51.680;5.134;2024-03-02T07:06:49;100008.28;;;5.30;100.00
70546;BME280;58098;51.680;5.134;2024-03-02T07:09:14;100001.25;;;5.19;100.00
70546;BME280;58098;51.680;5.134;2024-03-02T07:11:40;100010.94;;;5.28;100.00
70546;BME280;58098;51.680;5.134;2024-03-02T07:14:05;100015.41;;;5.26;100.00
70546;BME280;58098;51.680;5.134;2024-03-02T07:16:31;100008.69;;;5.24;100.00
70546;BME280;58098;51.680;5.134;2024-03-02T07:18:58;100020.25;;;5.31;100.00
70546;BME280;58098;51.680;5.134;2024-03-02T07:21:24;100021.22;;;5.30;100.00
70546;BME280;58098;51.680;5.134;2024-03-02T07:23:50;100015.41;;;5.26;100.00
70546;BME280;58098;51.680;5.134;2024-03-02T07:26:15;100027.41;;;5.27;100.00
70546;BME280;58098;51.680;5.134;2024-03-02T07:28:43;100034.34;;;5.27;100.00
70546;BME280;58098;51.680;5.134;2024-03-02T07:31:09;100033.44;;;5.28;100.00
70546;BME280;58098;51.680;5.134;2024-03-02T07:33:35;100029.13;;;5.16;100.00
70546;BME280;58098;51.680;5.134;2024-03-02T07:36:01;100041.47;;;5.23;100.00
70546;BME280;58098;51.680;5.134;2024-03-02T07:38:28;100036.13;;;5.14;100.00
70546;BME280;58098;51.680;5.134;2024-03-02T07:40:54;100036.13;;;5.14;100.00
70546;BME280;58098;51.680;5.134;2024-03-02T07:43:20;100039.22;;;5.19;100.00
70546;BME280;58098;51.680;5.134;2024-03-02T07:45:47;100026.09;;;5.09;100.00
70546;BME280;58098;51.680;5.134;2024-03-02T07:48:12;100030.69;;;5.06;100.00
70546;BME280;58098;51.680;5.134;2024-03-02T07:50:38;100035.09;;;5.04;100.00
70546;BME280;58098;51.680;5.134;2024-03-02T07:53:04;100047.81;;;5.07;100.00
70546;BME280;58098;51.680;5.134;2024-03-02T07:55:30;100048.72;;;5.18;100.00
70546;BME280;58098;51.680;5.134;2024-03-02T07:57:56;100051.09;;;5.21;100.00
70546;BME280;58098;51.680;5.134;2024-03-02T08:00:22;100040.69;;;5.23;100.00
70546;BME280;58098;51.680;5.134;2024-03-02T08:02:48;100047.06;;;5.30;100.00
70546;BME280;58098;51.680;5.134;2024-03-02T08:05:14;100026.59;;;5.27;100.00
70546;BME280;58098;51.680;5.134;2024-03-02T08:07:39;100031.31;;;5.33;100.00
70546;BME280;58098;51.680;5.134;2024-03-02T08:10:06;100036.78;;;5.41;100.00
70546;BME280;58098;51.680;5.134;2024-03-02T08:12:32;100048.84;;;5.53;100.00
70546;BME280;58098;51.680;5.134;2024-03-02T08:14:57;100052.78;;;5.59;100.00
70546;BME280;58098;51.680;5.134;2024-03-02T08:17:22;100041.81;;;5.55;100.00
70546;BME280;58098;51.680;5.134;2024-03-02T08:19:48;100044.88;;;5.60;100.00
70546;BME280;58098;51.680;5.134;2024-03-02T08:22:14;100035.81;;;5.55;100.00
70546;BME280;58098;51.680;5.134;2024-03-02T08:24:40;100038.25;;;5.69;100.00
70546;BME280;58098;51.680;5.134;2024-03-02T08:27:06;100040.16;;;5.78;100.00
70546;BME280;58098;51.680;5.134;2024-03-02T08:29:31;100042.25;;;5.85;100.00
70546;BME280;58098;51.680;5.134;2024-03-02T08:31:57;100043.66;;;5.89;100.00
70546;BME280;58098;51.680;5.134;2024-03-02T08:34:22;100037.34;;;5.93;100.00
70546;BME280;58098;51.680;5.134;2024-03-02T08:36:47;100038.53;;;6.01;100.00
70546;BME280;58098;51.680;5.134;2024-03-02T08:39:13;100033.78;;;5.94;100.00
70546;BME280;58098;51.680;5.134;2024-03-02T08:41:49;100044.91;;;6.08;100.00
70546;BME280;58098;51.680;5.134;2024-03-02T08:44:15;100045.63;;;6.10;100.00
70546;BME280;58098;51.680;5.134;2024-03-02T08:46:40;100035.75;;;6.15;100.00
70546;BME280;58098;51.680;5.134;2024-03-02T08:49:06;100067.13;;;6.34;100.00
70546;BME280;58098;51.680;5.134;2024-03-02T08:51:32;100066.09;;;6.36;100.00
70546;BME280;58098;51.680;5.134;2024-03-02T08:53:57;100055.72;;;6.36;100.00
70546;BME280;58098;51.680;5.134;2024-03-02T08:56:23;100054.94;;;6.47;100.00
70546;BME280;58098;51.680;5.134;2024-03-02T08:58:52;100065.31;;;6.58;100.00
70546;BME280;58098;51.680;5.134;2024-03-02T09:01:18;100076.16;;;6.63;100.00
70546;BME280;58098;51.680;5.134;2024-03-02T09:03:45;100060.88;;;6.71;100.00
70546;BME280;58098;51.680;5.134;2024-03-02T09:06:11;100068.06;;;6.79;100.00
70546;BME280;58098;51.680;5.134;2024-03-02T09:08:36;100055.44;;;6.74;100.00
70546;BME280;58098;51.680;5.134;2024-03-02T09:11:03;100066.53;;;6.87;100.00
70546;BME280;58098;51.680;5.134;2024-03-02T09:13:29;100065.81;;;6.96;100.00
70546;BME280;58098;51.680;5.134;2024-03-02T09:15:55;100075.28;;;6.97;100.00
70546;BME280;58098;51.680;5.134;2024-03-02T09:18:20;100074.91;;;7.02;100.00
70546;BME280;58098;51.680;5.134;2024-03-02T09:20:45;100077.84;;;7.08;100.00
70546;BME280;58098;51.680;5.134;2024-03-02T09:23:11;100073.75;;;7.17;100.00
70546;BME280;58098;51.680;5.134;2024-03-02T09:25:36;100085.91;;;7.27;100.00
70546;BME280;58098;51.680;5.134;2024-03-02T09:28:02;100089.16;;;7.41;100.00
70546;BME280;58098;51.680;5.134;2024-03-02T09:30:28;100086.91;;;7.47;100.00
70546;BME280;58098;51.680;5.134;2024-03-02T09:32:53;100066.03;;;7.49;100.00
70546;BME280;58098;51.680;5.134;2024-03-02T09:35:18;100077.47;;;7.57;100.00
70546;BME280;58098;51.680;5.134;2024-03-02T09:37:44;100063.88;;;7.65;100.00
70546;BME280;58098;51.680;5.134;2024-03-02T09:40:10;100077.09;;;7.73;100.00
70546;BME280;58098;51.680;5.134;2024-03-02T09:42:36;100069.75;;;7.78;100.00
70546;BME280;58098;51.680;5.134;2024-03-02T09:45:01;100062.53;;;7.81;100.00
70546;BME280;58098;51.680;5.134;2024-03-02T09:47:27;100081.53;;;7.93;100.00
70546;BME280;58098;51.680;5.134;2024-03-02T09:49:52;100069.69;;;8.00;100.00
70546;BME280;58098;51.680;5.134;2024-03-02T09:52:18;100084.06;;;8.15;100.00
70546;BME280;58098;51.680;5.134;2024-03-02T09:54:44;100087.34;;;8.17;100.00
70546;BME280;58098;51.680;5.134;2024-03-02T09:57:09;100089.44;;;8.23;100.00
70546;BME280;58098;51.680;5.134;2024-03-02T09:59:35;100104.69;;;8.28;100.00
70546;BME280;58098;51.680;5.134;2024-03-02T10:02:03;100097.69;;;8.39;100.00
70546;BME280;58098;51.680;5.134;2024-03-02T10:04:30;100093.94;;;8.53;100.00
70546;BME280;58098;51.680;5.134;2024-03-02T10:09:40;100103.63;;;8.72;100.00
70546;BME280;58098;51.680;5.134;2024-03-02T10:12:08;100097.94;;;8.78;100.00
70546;BME280;58098;51.680;5.134;2024-03-02T10:14:34;100074.97;;;8.83;100.00
70546;BME280;58098;51.680;5.134;2024-03-02T10:17:10;100062.00;;;8.92;100.00
70546;BME280;58098;51.680;5.134;2024-03-02T10:19:36;100079.38;;;8.92;100.00
70546;BME280;58098;51.680;5.134;2024-03-02T10:22:03;100078.09;;;9.07;100.00
70546;BME280;58098;51.680;5.134;2024-03-02T10:24:37;100067.88;;;9.15;100.00
70546;BME280;58098;51.680;5.134;2024-03-02T10:29:39;100061.50;;;9.38;100.00
70546;BME280;58098;51.680;5.134;2024-03-02T10:32:05;100067.81;;;9.45;100.00
70546;BME280;58098;51.680;5.134;2024-03-02T10:34:31;100066.88;;;9.46;100.00
70546;BME280;58098;51.680;5.134;2024-03-02T10:36:57;100064.44;;;9.64;100.00
70546;BME280;58098;51.680;5.134;2024-03-02T10:39:24;100089.97;;;9.79;100.00
70546;BME280;58098;51.680;5.134;2024-03-02T10:41:49;100060.78;;;9.85;100.00
70546;BME280;58098;51.680;5.134;2024-03-02T10:44:17;100081.50;;;9.96;100.00
70546;BME280;58098;51.680;5.134;2024-03-02T10:46:45;100071.50;;;10.11;100.00
70546;BME280;58098;51.680;5.134;2024-03-02T10:49:10;100070.41;;;10.14;100.00
70546;BME280;58098;51.680;5.134;2024-03-02T10:51:36;100073.84;;;10.24;100.00
70546;BME280;58098;51.680;5.134;2024-03-02T10:54:03;100053.66;;;10.35;100.00
70546;BME280;58098;51.680;5.134;2024-03-02T10:56:40;100052.03;;;10.44;100.00
70546;BME280;58098;51.680;5.134;2024-03-02T11:01:42;100065.47;;;10.58;100.00
70546;BME280;58098;51.680;5.134;2024-03-02T11:04:08;100067.94;;;10.50;100.00
70546;BME280;58098;51.680;5.134;2024-03-02T11:06:35;100046.34;;;10.68;100.00
70546;BME280;58098;51.680;5.134;2024-03-02T11:09:06;100064.31;;;10.80;100.00
70546;BME280;58098;51.680;5.134;2024-03-02T11:11:37;100067.19;;;10.77;100.00
70546;BME280;58098;51.680;5.134;2024-03-02T11:14:13;100041.16;;;11.04;100.00
70546;BME280;58098;51.680;5.134;2024-03-02T11:16:39;100052.31;;;10.97;100.00
70546;BME280;58098;51.680;5.134;2024-03-02T11:19:15;100075.59;;;11.08;100.00
70546;BME280;58098;51.680;5.134;2024-03-02T11:21:42;100068.78;;;11.24;100.00
70546;BME280;58098;51.680;5.134;2024-03-02T11:27:02;100036.78;;;11.50;100.00
70546;BME280;58098;51.680;5.134;2024-03-02T11:32:03;100062.03;;;11.59;100.00
70546;BME280;58098;51.680;5.134;2024-03-02T11:34:33;100057.25;;;11.81;100.00
70546;BME280;58098;51.680;5.134;2024-03-02T11:37:01;100056.06;;;11.93;100.00
70546;BME280;58098;51.680;5.134;2024-03-02T11:39:27;100029.91;;;11.93;100.00
70546;BME280;58098;51.680;5.134;2024-03-02T11:41:53;100055.47;;;12.00;100.00
70546;BME280;58098;51.680;5.134;2024-03-02T11:44:19;100065.03;;;12.09;100.00
70546;BME280;58098;51.680;5.134;2024-03-02T11:46:45;100040.00;;;12.24;100.00
70546;BME280;58098;51.680;5.134;2024-03-02T11:49:14;100016.63;;;12.48;100.00
70546;BME280;58098;51.680;5.134;2024-03-02T11:51:51;100017.50;;;12.56;100.00
70546;BME280;58098;51.680;5.134;2024-03-02T11:54:18;100042.94;;;12.46;100.00
70546;BME280;58098;51.680;5.134;2024-03-02T11:56:44;100017.91;;;12.70;100.00
70546;BME280;58098;51.680;5.134;2024-03-02T11:59:09;100043.19;;;12.61;100.00
70546;BME280;58098;51.680;5.134;2024-03-02T12:01:35;100026.16;;;12.83;100.00
70546;BME280;58098;51.680;5.134;2024-03-02T12:04:00;100022.81;;;12.98;100.00
70546;BME280;58098;51.680;5.134;2024-03-02T12:06:27;100046.53;;;12.97;100.00
70546;BME280;58098;51.680;5.134;2024-03-02T12:08:53;100000.00;;;13.24;100.00
70546;BME280;58098;51.680;5.134;2024-03-02T12:11:20;100010.34;;;13.26;100.00
70546;BME280;58098;51.680;5.134;2024-03-02T12:13:52;99979.25;;;13.39;100.00
70546;BME280;58098;51.680;5.134;2024-03-02T12:16:24;100012.63;;;13.29;100.00
70546;BME280;58098;51.680;5.134;2024-03-02T12:18:49;99998.22;;;13.25;100.00
70546;BME280;58098;51.680;5.134;2024-03-02T12:21:14;99990.75;;;13.38;100.00
70546;BME280;58098;51.680;5.134;2024-03-02T12:23:40;100010.22;;;13.36;100.00
70546;BME280;58098;51.680;5.134;2024-03-02T12:26:06;99951.94;;;13.66;100.00
70546;BME280;58098;51.680;5.134;2024-03-02T12:28:33;99971.78;;;13.76;100.00
70546;BME280;58098;51.680;5.134;2024-03-02T12:30:58;99984.25;;;13.90;100.00
70546;BME280;58098;51.680;5.134;2024-03-02T12:33:24;99956.72;;;14.03;100.00
70546;BME280;58098;51.680;5.134;2024-03-02T12:35:49;99962.28;;;14.00;100.00
70546;BME280;58098;51.680;5.134;2024-03-02T12:38:15;99957.03;;;14.08;100.00
70546;BME280;58098;51.680;5.134;2024-03-02T12:40:40;99980.66;;;14.08;100.00
70546;BME280;58098;51.680;5.134;2024-03-02T12:43:06;99976.88;;;14.10;100.00
70546;BME280;58098;51.680;5.134;2024-03-02T12:45:31;99962.59;;;14.29;100.00
70546;BME280;58098;51.680;5.134;2024-03-02T12:47:57;99954.75;;;14.37;100.00
70546;BME280;58098;51.680;5.134;2024-03-02T12:50:22;99961.16;;;14.34;100.00
70546;BME280;58098;51.680;5.134;2024-03-02T12:52:52;99953.59;;;14.39;100.00
70546;BME280;58098;51.680;5.134;2024-03-02T12:55:20;99975.41;;;14.32;100.00
70546;BME280;58098;51.680;5.134;2024-03-02T12:57:46;99963.59;;;14.36;100.00
70546;BME280;58098;51.680;5.134;2024-03-02T13:00:12;99934.06;;;14.34;100.00
70546;BME280;58098;51.680;5.134;2024-03-02T13:02:40;99922.59;;;14.43;100.00
70546;BME280;58098;51.680;5.134;2024-03-02T13:05:07;99947.31;;;14.57;100.00
70546;BME280;58098;51.680;5.134;2024-03-02T13:07:37;99955.31;;;14.63;100.00